createdAt,value
2018-05-13T00:02:26.353Z,22.49
2018-05-13T00:04:53.089Z,22.48
2018-05-13T00:07:19.800Z,22.55
2018-05-13T00:09:46.462Z,22.48
2018-05-13T00:12:13.170Z,22.56
2018-05-13T00:14:39.873Z,22.44
2018-05-13T00:17:06.611Z,22.55
2018-05-13T00:19:33.237Z,22.49
2018-05-13T00:21:59.901Z,22.50
2018-05-13T00:24:26.696Z,22.44
2018-05-13T00:26:53.327Z,22.50
2018-05-13T00:29:20.010Z,22.52
2018-05-13T00:31:46.783Z,22.46
2018-05-13T00:34:13.484Z,22.40
2018-05-13T00:36:40.140Z,22.44
2018-05-13T00:39:06.812Z,22.44
2018-05-13T00:41:33.480Z,22.40
2018-05-13T00:44:00.151Z,22.52
2018-05-13T00:46:26.844Z,22.41
2018-05-13T00:48:53.519Z,22.41
2018-05-13T00:51:20.217Z,22.44
2018-05-13T00:53:46.912Z,22.37
2018-05-13T00:56:13.624Z,22.42
2018-05-13T00:58:40.258Z,22.40
2018-05-13T01:01:06.932Z,22.36
2018-05-13T01:03:33.677Z,22.28
2018-05-13T01:06:00.312Z,22.39
2018-05-13T01:08:27.046Z,22.40
2018-05-13T01:10:53.719Z,22.38
2018-05-13T01:13:20.347Z,22.38
2018-05-13T01:15:47.009Z,22.31
2018-05-13T01:18:13.745Z,22.31
2018-05-13T01:20:40.409Z,22.37
2018-05-13T01:23:07.039Z,22.31
2018-05-13T01:25:33.714Z,22.25
2018-05-13T01:28:00.483Z,22.34
2018-05-13T01:30:27.192Z,22.39
2018-05-13T01:32:53.893Z,22.31
2018-05-13T01:35:20.522Z,22.28
2018-05-13T01:37:47.227Z,22.17
2018-05-13T01:40:13.929Z,22.22
2018-05-13T01:42:40.648Z,22.21
2018-05-13T01:45:07.288Z,22.20
2018-05-13T01:47:34.039Z,22.24
2018-05-13T01:50:00.696Z,22.22
2018-05-13T01:52:27.360Z,22.21
2018-05-13T01:54:54.002Z,22.22
2018-05-13T01:57:20.682Z,22.22
2018-05-13T01:59:47.383Z,22.18
2018-05-13T02:02:14.081Z,22.16
2018-05-13T02:04:40.752Z,22.17
2018-05-13T02:07:07.419Z,22.21
2018-05-13T02:09:34.081Z,22.15
2018-05-13T02:12:00.798Z,22.16
2018-05-13T02:14:27.488Z,22.19
2018-05-13T02:16:54.195Z,22.15
2018-05-13T02:19:20.909Z,22.14
2018-05-13T02:21:47.535Z,22.10
2018-05-13T02:24:14.281Z,22.05
2018-05-13T02:26:40.915Z,22.09
2018-05-13T02:29:07.597Z,22.10
2018-05-13T02:31:34.250Z,22.06
2018-05-13T02:34:00.949Z,22.05
2018-05-13T02:36:27.676Z,22.14
2018-05-13T02:38:54.325Z,22.10
2018-05-13T02:41:21.009Z,22.08
2018-05-13T02:43:47.657Z,22.11
2018-05-13T02:46:14.392Z,22.04
2018-05-13T02:48:41.096Z,22.10
2018-05-13T02:51:07.747Z,22.03
2018-05-13T02:53:34.411Z,22.02
2018-05-13T02:56:01.011Z,22.15
2018-05-13T02:58:27.661Z,21.96
2018-05-13T03:00:54.596Z,22.04
2018-05-13T03:03:21.284Z,21.97
2018-05-13T03:05:47.953Z,22.02
2018-05-13T03:08:14.557Z,21.99
2018-05-13T03:10:41.241Z,21.99
2018-05-13T03:13:07.995Z,21.95
2018-05-13T03:15:34.684Z,21.98
2018-05-13T03:18:01.321Z,22.03
2018-05-13T03:20:27.952Z,22.01
2018-05-13T03:22:54.563Z,21.96
2018-05-13T03:25:21.271Z,22.01
2018-05-13T03:27:47.899Z,22.00
2018-05-13T03:30:14.536Z,21.89
2018-05-13T03:32:41.175Z,21.91
2018-05-13T03:35:07.805Z,22.02
2018-05-13T03:37:34.416Z,21.95
2018-05-13T03:40:01.056Z,21.94
2018-05-13T03:42:27.768Z,21.82
2018-05-13T03:44:54.401Z,21.82
2018-05-13T03:47:21.098Z,21.87
2018-05-13T03:49:47.738Z,21.85
2018-05-13T03:52:14.369Z,21.91
2018-05-13T03:54:40.980Z,21.93
2018-05-13T03:57:07.654Z,21.94
2018-05-13T03:59:34.354Z,22.02
2018-05-13T04:02:00.950Z,22.14
2018-05-13T04:04:27.629Z,22.24
2018-05-13T04:06:54.288Z,22.34
2018-05-13T04:09:20.934Z,22.25
2018-05-13T04:11:47.614Z,22.37
2018-05-13T04:14:14.249Z,22.49
2018-05-13T04:16:40.911Z,22.60
2018-05-13T04:19:07.521Z,22.70
2018-05-13T04:21:34.197Z,22.79
2018-05-13T04:24:00.869Z,22.66
2018-05-13T04:26:27.554Z,22.63
2018-05-13T04:28:54.212Z,22.62
2018-05-13T04:31:20.844Z,22.61
2018-05-13T04:33:47.490Z,22.65
2018-05-13T04:36:14.195Z,22.72
2018-05-13T04:38:40.798Z,22.75
2018-05-13T04:41:07.515Z,22.80
2018-05-13T04:43:34.156Z,22.81
2018-05-13T04:46:00.829Z,22.83
2018-05-13T04:48:27.510Z,22.80
2018-05-13T04:50:54.113Z,22.79
2018-05-13T04:53:20.751Z,22.74
2018-05-13T04:55:47.427Z,22.75
2018-05-13T04:58:14.057Z,22.78
2018-05-13T05:00:40.704Z,22.83
2018-05-13T05:03:07.307Z,22.81
2018-05-13T05:05:33.974Z,22.84
2018-05-13T05:08:00.616Z,22.81
2018-05-13T05:10:27.325Z,22.91
2018-05-13T05:12:53.925Z,22.88
2018-05-13T05:15:20.603Z,22.90
2018-05-13T05:17:47.266Z,22.95
2018-05-13T05:20:13.874Z,22.79
2018-05-13T05:22:41.908Z,22.95
2018-05-13T05:25:07.198Z,22.93
2018-05-13T05:27:33.858Z,22.94
2018-05-13T05:30:00.463Z,22.96
2018-05-13T05:32:27.128Z,22.81
2018-05-13T05:34:53.810Z,22.80
2018-05-13T05:37:20.450Z,22.81
2018-05-13T05:39:47.200Z,22.80
2018-05-13T05:42:13.874Z,22.75
2018-05-13T05:44:40.553Z,22.76
2018-05-13T05:47:07.184Z,22.78
2018-05-13T05:49:33.832Z,22.78
2018-05-13T05:52:00.495Z,22.81
2018-05-13T05:54:27.169Z,22.70
2018-05-13T05:56:53.808Z,22.73
2018-05-13T05:59:20.478Z,22.73
2018-05-13T06:01:47.122Z,22.73
2018-05-13T06:04:13.750Z,22.74
2018-05-13T06:06:40.467Z,22.79
2018-05-13T06:09:07.111Z,22.80
2018-05-13T06:11:33.708Z,22.83
2018-05-13T06:14:00.361Z,22.81
2018-05-13T06:16:27.086Z,22.83
2018-05-13T06:18:53.780Z,22.89
2018-05-13T06:23:47.119Z,22.98
2018-05-13T06:26:13.859Z,22.97
2018-05-13T06:28:40.460Z,23.08
2018-05-13T06:31:07.096Z,23.13
2018-05-13T06:33:33.781Z,23.17
2018-05-13T06:36:00.416Z,23.29
2018-05-13T06:38:27.088Z,23.24
2018-05-13T06:40:53.735Z,23.42
2018-05-13T06:43:20.410Z,23.51
2018-05-13T06:45:47.127Z,23.59
2018-05-13T06:48:13.770Z,23.56
2018-05-13T06:50:40.418Z,23.64
2018-05-13T06:53:09.872Z,23.67
2018-05-13T06:55:36.510Z,23.67
2018-05-13T06:58:03.141Z,23.65
2018-05-13T07:00:29.776Z,23.54
2018-05-13T07:02:56.409Z,23.60
2018-05-13T07:05:23.032Z,23.61
2018-05-13T07:07:49.646Z,23.64
2018-05-13T07:10:16.320Z,23.61
2018-05-13T07:12:42.933Z,23.65
2018-05-13T07:15:09.560Z,23.51
2018-05-13T07:17:36.195Z,23.59
2018-05-13T07:20:02.835Z,23.57
2018-05-13T07:22:29.503Z,23.60
2018-05-13T07:24:56.131Z,23.64
2018-05-13T07:27:22.862Z,23.64
2018-05-13T07:29:49.530Z,23.68
2018-05-13T07:32:16.110Z,23.58
2018-05-13T07:34:42.749Z,23.66
2018-05-13T07:37:09.430Z,23.74
2018-05-13T07:39:36.054Z,23.79
2018-05-13T07:42:02.658Z,23.82
2018-05-13T07:44:29.323Z,23.77
2018-05-13T07:46:55.942Z,23.81
2018-05-13T07:49:22.622Z,23.88
2018-05-13T07:51:49.219Z,23.97
2018-05-13T07:54:15.850Z,24.02
2018-05-13T07:56:42.494Z,23.94
2018-05-13T07:59:09.166Z,24.00
2018-05-13T08:01:35.890Z,24.05
2018-05-13T08:04:02.494Z,24.08
2018-05-13T08:06:29.131Z,24.12
2018-05-13T08:08:55.806Z,23.97
2018-05-13T08:11:22.402Z,24.08
2018-05-13T08:13:49.040Z,24.13
2018-05-13T08:16:15.822Z,24.17
2018-05-13T08:18:42.453Z,24.22
2018-05-13T08:21:09.096Z,24.08
2018-05-13T08:23:35.729Z,24.14
2018-05-13T08:26:02.370Z,24.20
2018-05-13T08:28:29.033Z,24.22
2018-05-13T08:30:55.674Z,24.24
2018-05-13T08:33:22.265Z,24.12
2018-05-13T08:35:48.901Z,24.18
2018-05-13T08:38:15.565Z,24.19
2018-05-13T08:40:42.203Z,24.24
2018-05-13T08:43:08.832Z,24.25
2018-05-13T08:45:35.442Z,24.16
2018-05-13T08:48:02.112Z,24.11
2018-05-13T08:50:28.762Z,24.18
2018-05-13T08:52:55.355Z,24.21
2018-05-13T08:55:21.992Z,24.23
2018-05-13T08:57:48.640Z,24.25
2018-05-13T09:00:15.270Z,24.12
2018-05-13T09:02:41.951Z,24.14
2018-05-13T09:05:08.587Z,24.18
2018-05-13T09:07:35.198Z,24.21
2018-05-13T09:10:01.840Z,24.22
2018-05-13T09:12:28.464Z,24.25
2018-05-13T09:14:55.142Z,24.15
2018-05-13T09:17:21.777Z,24.18
2018-05-13T09:19:48.416Z,24.24
2018-05-13T09:22:15.052Z,24.26
2018-05-13T09:24:41.679Z,24.26
2018-05-13T09:27:08.308Z,24.28
2018-05-13T09:29:34.954Z,24.16
2018-05-13T09:32:01.576Z,24.20
2018-05-13T09:34:28.257Z,24.22
2018-05-13T09:36:54.849Z,24.24
2018-05-13T09:39:21.481Z,24.24
2018-05-13T09:41:48.152Z,24.22
2018-05-13T09:44:14.801Z,24.17
2018-05-13T09:46:41.468Z,24.11
2018-05-13T09:49:08.093Z,24.19
2018-05-13T09:51:34.701Z,24.21
2018-05-13T09:54:01.363Z,24.26
2018-05-13T09:56:28.000Z,24.25
2018-05-13T09:58:54.633Z,24.24
2018-05-13T10:01:21.237Z,24.11
2018-05-13T10:03:47.882Z,24.18
2018-05-13T10:06:14.524Z,24.25
2018-05-13T10:08:41.195Z,24.27
2018-05-13T10:11:07.795Z,24.27
2018-05-13T10:13:34.471Z,24.29
2018-05-13T10:16:01.071Z,24.23
2018-05-13T10:18:27.745Z,24.21
2018-05-13T10:20:54.373Z,24.27
2018-05-13T10:23:20.982Z,24.28
2018-05-13T10:25:47.672Z,24.35
2018-05-13T10:28:14.303Z,24.33
2018-05-13T10:30:40.940Z,24.20
2018-05-13T10:33:07.551Z,24.25
2018-05-13T10:35:34.476Z,24.32
2018-05-13T10:38:01.066Z,24.33
2018-05-13T10:40:27.745Z,24.34
2018-05-13T10:42:54.382Z,24.37
2018-05-13T10:45:21.018Z,24.25
2018-05-13T10:47:47.648Z,24.28
2018-05-13T10:50:14.283Z,24.34
2018-05-13T10:52:40.921Z,24.41
2018-05-13T10:55:07.589Z,24.44
2018-05-13T10:57:34.190Z,24.45
2018-05-13T11:00:00.914Z,24.33
2018-05-13T11:02:27.521Z,24.38
2018-05-13T11:04:54.149Z,24.42
2018-05-13T11:07:20.811Z,24.48
2018-05-13T11:09:47.418Z,24.49
2018-05-13T11:12:14.097Z,24.56
2018-05-13T11:14:40.736Z,24.40
2018-05-13T11:17:07.408Z,24.47
2018-05-13T11:19:34.052Z,24.54
2018-05-13T11:22:00.702Z,24.60
2018-05-13T11:24:27.338Z,24.61
2018-05-13T11:26:54.020Z,24.61
2018-05-13T11:29:20.640Z,24.47
2018-05-13T11:31:47.267Z,24.49
2018-05-13T11:34:16.792Z,24.55
2018-05-13T11:36:43.530Z,24.61
2018-05-13T11:39:10.126Z,24.53
2018-05-13T11:41:36.798Z,24.55
2018-05-13T11:44:03.431Z,24.46
2018-05-13T11:46:30.115Z,24.47
2018-05-13T11:48:56.796Z,24.49
2018-05-13T11:51:23.389Z,24.50
2018-05-13T11:53:50.084Z,24.50
2018-05-13T11:56:16.756Z,24.46
2018-05-13T11:58:43.353Z,24.48
2018-05-13T12:01:10.036Z,24.33
2018-05-13T12:03:36.649Z,24.37
2018-05-13T12:06:03.287Z,24.34
2018-05-13T12:08:29.950Z,24.35
2018-05-13T12:10:56.559Z,24.35
2018-05-13T12:13:23.190Z,24.28
2018-05-13T12:15:49.825Z,24.26
2018-05-13T12:18:16.463Z,24.19
2018-05-13T12:20:43.145Z,24.15
2018-05-13T12:23:09.855Z,24.10
2018-05-13T12:25:36.484Z,23.98
2018-05-13T12:28:03.087Z,24.01
2018-05-13T12:30:29.737Z,23.94
2018-05-13T12:32:56.378Z,23.91
2018-05-13T12:35:23.071Z,23.92
2018-05-13T12:37:49.720Z,23.91
2018-05-13T12:40:16.352Z,23.91
2018-05-13T12:42:42.955Z,23.92
2018-05-13T12:45:09.632Z,23.94
2018-05-13T12:47:36.362Z,23.89
2018-05-13T12:50:02.968Z,23.82
2018-05-13T12:52:29.611Z,23.84
2018-05-13T12:54:56.257Z,23.83
2018-05-13T12:57:22.930Z,23.83
2018-05-13T12:59:50.826Z,23.82
2018-05-13T13:02:16.247Z,23.84
2018-05-13T13:04:42.871Z,23.79
2018-05-13T13:07:09.507Z,23.79
2018-05-13T13:09:36.169Z,23.83
2018-05-13T13:12:02.793Z,23.85
2018-05-13T13:14:29.448Z,23.83
2018-05-13T13:16:56.084Z,23.81
2018-05-13T13:19:22.777Z,23.84
2018-05-13T13:21:49.450Z,23.79
2018-05-13T13:24:16.054Z,23.82
2018-05-13T13:26:42.743Z,23.83
2018-05-13T13:29:09.371Z,23.82
2018-05-13T13:31:35.964Z,23.86
2018-05-13T13:34:02.637Z,23.80
2018-05-13T13:36:29.247Z,23.84
2018-05-13T13:38:55.899Z,23.77
2018-05-13T13:41:22.668Z,23.77
2018-05-13T13:43:49.305Z,23.77
2018-05-13T13:46:15.981Z,23.79
2018-05-13T13:48:42.609Z,23.77
2018-05-13T13:51:09.289Z,23.82
2018-05-13T13:53:35.898Z,23.81
2018-05-13T13:56:02.624Z,23.79
2018-05-13T13:58:29.298Z,23.78
2018-05-13T14:00:56.013Z,23.76
2018-05-13T14:03:22.695Z,23.72
2018-05-13T14:05:49.294Z,23.78
2018-05-13T14:08:16.013Z,23.77
2018-05-13T14:10:42.616Z,23.78
2018-05-13T14:13:09.245Z,23.80
2018-05-13T14:15:35.894Z,23.77
2018-05-13T14:18:02.559Z,23.79
2018-05-13T14:20:29.357Z,23.72
2018-05-13T14:22:55.913Z,23.75
2018-05-13T14:25:22.550Z,23.73
2018-05-13T14:27:49.228Z,23.75
2018-05-13T14:30:15.839Z,23.75
2018-05-13T14:32:42.541Z,23.74
2018-05-13T14:35:09.179Z,23.75
2018-05-13T14:37:35.791Z,23.74
2018-05-13T14:40:02.464Z,23.71
2018-05-13T14:42:29.202Z,23.71
2018-05-13T14:44:55.840Z,23.73
2018-05-13T14:47:22.526Z,23.59
2018-05-13T14:49:49.156Z,23.64
2018-05-13T14:52:15.871Z,23.66
2018-05-13T14:54:42.479Z,23.64
2018-05-13T14:57:09.143Z,23.64
2018-05-13T14:59:35.751Z,23.62
2018-05-13T15:02:02.524Z,23.64
2018-05-13T15:04:29.163Z,23.64
2018-05-13T15:06:55.758Z,23.61
2018-05-13T15:09:22.400Z,23.60
2018-05-13T15:11:49.068Z,23.63
2018-05-13T15:14:15.710Z,23.60
2018-05-13T15:16:42.331Z,23.62
2018-05-13T15:19:08.982Z,23.59
2018-05-13T15:21:35.654Z,23.51
2018-05-13T15:24:02.298Z,23.50
2018-05-13T15:26:28.936Z,23.53
2018-05-13T15:28:55.688Z,23.55
2018-05-13T15:31:22.325Z,23.52
2018-05-13T15:33:49.000Z,23.54
2018-05-13T15:36:15.633Z,23.52
2018-05-13T15:38:42.341Z,23.53
2018-05-13T15:41:08.979Z,23.51
2018-05-13T15:43:35.611Z,23.51
2018-05-13T15:46:02.285Z,23.50
2018-05-13T15:48:29.028Z,23.44
2018-05-13T15:50:55.662Z,23.52
2018-05-13T15:53:22.338Z,23.51
2018-05-13T15:55:48.969Z,23.44
2018-05-13T15:58:15.615Z,23.40
2018-05-13T16:00:42.295Z,23.45
2018-05-13T16:03:08.919Z,23.43
2018-05-13T16:05:35.552Z,23.43
2018-05-13T16:08:02.189Z,23.43
2018-05-13T16:10:28.784Z,23.44
2018-05-13T16:12:55.539Z,23.42
2018-05-13T16:15:22.140Z,23.42
2018-05-13T16:17:48.784Z,23.42
2018-05-13T16:20:15.468Z,23.42
2018-05-13T16:22:42.110Z,23.41
2018-05-13T16:25:08.741Z,23.39
2018-05-13T16:27:35.412Z,23.40
2018-05-13T16:30:02.075Z,23.37
2018-05-13T16:32:28.723Z,23.39
2018-05-13T16:34:55.395Z,23.34
2018-05-13T16:37:24.067Z,23.31
2018-05-13T16:39:48.670Z,23.33
2018-05-13T16:42:15.297Z,23.29
2018-05-13T16:44:42.012Z,23.33
2018-05-13T16:47:08.624Z,23.26
2018-05-13T16:49:35.284Z,23.27
2018-05-13T16:52:01.965Z,23.34
2018-05-13T16:54:28.602Z,23.29
2018-05-13T16:56:55.235Z,23.22
2018-05-13T16:59:21.942Z,23.24
2018-05-13T17:01:48.510Z,23.20
2018-05-13T17:04:15.180Z,23.24
2018-05-13T17:06:41.816Z,23.26
2018-05-13T17:09:08.528Z,23.23
2018-05-13T17:11:35.167Z,23.23
2018-05-13T17:14:01.880Z,23.26
2018-05-13T17:16:28.485Z,23.25
2018-05-13T17:18:55.149Z,23.26
2018-05-13T17:21:21.837Z,23.29
2018-05-13T17:23:48.481Z,23.25
2018-05-13T17:26:15.118Z,23.27
2018-05-13T17:28:41.746Z,23.29
2018-05-13T17:31:08.390Z,23.26
2018-05-13T17:33:35.026Z,23.25
2018-05-13T17:36:01.710Z,23.26
2018-05-13T17:38:28.338Z,23.22
2018-05-13T17:40:54.985Z,23.22
2018-05-13T17:43:21.699Z,23.22
2018-05-13T17:45:48.375Z,23.19
2018-05-13T17:48:14.989Z,23.14
2018-05-13T17:50:41.671Z,23.19
2018-05-13T17:53:08.307Z,23.15
2018-05-13T17:55:34.945Z,23.17
2018-05-13T17:58:01.624Z,23.12
2018-05-13T18:00:28.287Z,23.11
2018-05-13T18:02:54.939Z,23.12
2018-05-13T18:05:21.570Z,23.16
2018-05-13T18:07:48.207Z,23.10
2018-05-13T18:10:14.809Z,23.09
2018-05-13T18:12:41.483Z,23.04
2018-05-13T18:15:08.154Z,23.03
2018-05-13T18:17:34.829Z,23.05
2018-05-13T18:20:01.466Z,23.07
2018-05-13T18:22:28.183Z,23.05
2018-05-13T18:24:54.828Z,23.05
2018-05-13T18:27:21.445Z,23.01
2018-05-13T18:29:48.089Z,23.03
2018-05-13T18:32:14.732Z,23.03
2018-05-13T18:34:41.337Z,23.03
2018-05-13T18:37:07.967Z,23.01
2018-05-13T18:39:34.643Z,23.00
2018-05-13T18:42:01.282Z,22.98
2018-05-13T18:44:28.010Z,22.94
2018-05-13T18:46:54.598Z,22.96
2018-05-13T18:49:21.295Z,22.96
2018-05-13T18:51:47.927Z,22.96
2018-05-13T18:54:14.526Z,22.97
2018-05-13T18:56:41.206Z,22.97
2018-05-13T18:59:08.001Z,22.97
2018-05-13T19:01:34.644Z,22.96
2018-05-13T19:04:01.247Z,22.89
2018-05-13T19:06:27.949Z,22.89
2018-05-13T19:08:54.583Z,22.89
2018-05-13T19:11:21.217Z,22.93
2018-05-13T19:13:47.855Z,22.82
2018-05-13T19:16:14.493Z,22.90
2018-05-13T19:18:41.205Z,22.85
2018-05-13T19:21:07.832Z,22.84
2018-05-13T19:23:34.430Z,22.84
2018-05-13T19:26:01.088Z,22.83
2018-05-13T19:28:27.749Z,22.85
2018-05-13T19:30:54.380Z,22.86
2018-05-13T19:33:21.098Z,22.79
2018-05-13T19:35:47.734Z,22.80
2018-05-13T19:38:14.405Z,22.73
2018-05-13T19:40:41.080Z,22.81
2018-05-13T19:43:07.685Z,22.75
2018-05-13T19:45:34.353Z,22.70
2018-05-13T19:48:01.036Z,22.72
2018-05-13T19:50:27.679Z,22.76
2018-05-13T19:52:54.319Z,22.75
2018-05-13T19:55:20.972Z,22.72
2018-05-13T19:57:47.611Z,22.67
2018-05-13T20:00:14.293Z,22.69
2018-05-13T20:02:40.935Z,22.74
2018-05-13T20:05:07.537Z,22.62
2018-05-13T20:07:34.207Z,22.66
2018-05-13T20:10:00.915Z,22.62
2018-05-13T20:12:27.506Z,22.64
2018-05-13T20:14:54.143Z,22.66
2018-05-13T20:17:20.781Z,22.68
2018-05-13T20:19:47.469Z,22.61
2018-05-13T20:22:14.140Z,22.65
2018-05-13T20:24:40.822Z,22.57
2018-05-13T20:27:07.459Z,22.65
2018-05-13T20:29:34.105Z,22.59
2018-05-13T20:32:00.739Z,22.53
2018-05-13T20:34:27.382Z,22.56
2018-05-13T20:36:54.020Z,22.61
2018-05-13T20:39:20.719Z,22.55
2018-05-13T20:41:47.387Z,22.59
2018-05-13T20:44:13.997Z,22.56
2018-05-13T20:46:40.626Z,22.54
2018-05-13T20:49:07.278Z,22.55
2018-05-13T20:51:33.959Z,22.56
2018-05-13T20:54:00.586Z,22.55
2018-05-13T20:56:27.262Z,22.50
2018-05-13T20:58:53.893Z,22.53
2018-05-13T21:01:20.570Z,22.55
2018-05-13T21:03:47.202Z,22.54
2018-05-13T21:06:13.933Z,22.56
2018-05-13T21:08:40.559Z,22.52
2018-05-13T21:11:07.462Z,22.48
2018-05-13T21:13:34.134Z,22.50
2018-05-13T21:18:27.401Z,22.47
2018-05-13T21:20:54.049Z,22.47
2018-05-13T21:23:20.709Z,22.38
2018-05-13T21:25:47.380Z,22.45
2018-05-13T21:28:14.046Z,22.46
2018-05-13T21:30:40.703Z,22.39
2018-05-13T21:33:07.411Z,22.35
2018-05-13T21:35:34.076Z,22.35
2018-05-13T21:38:00.822Z,22.37
2018-05-13T21:40:27.443Z,22.39
2018-05-13T21:42:54.153Z,22.37
2018-05-13T21:45:20.789Z,22.32
2018-05-13T21:47:47.609Z,22.34
2018-05-13T21:50:14.292Z,22.30
2018-05-13T21:52:41.006Z,22.32
2018-05-13T21:55:07.644Z,22.29
2018-05-13T21:57:34.359Z,22.31
2018-05-13T22:00:01.059Z,22.28
2018-05-13T22:02:27.701Z,22.35
2018-05-13T22:04:54.377Z,22.33
2018-05-13T22:07:21.245Z,22.25
2018-05-13T22:09:47.707Z,22.23
2018-05-13T22:12:14.374Z,22.22
2018-05-13T22:14:41.090Z,22.29
2018-05-13T22:17:07.720Z,22.27
2018-05-13T22:19:34.558Z,22.31
2018-05-13T22:22:01.220Z,22.25
2018-05-13T22:24:27.881Z,22.22
2018-05-13T22:26:54.591Z,22.20
2018-05-13T22:29:21.251Z,22.20
2018-05-13T22:31:47.925Z,22.21
2018-05-13T22:34:14.625Z,22.24
2018-05-13T22:36:41.259Z,22.21
2018-05-13T22:39:07.956Z,22.21
2018-05-13T22:41:34.670Z,22.19
2018-05-13T22:44:01.303Z,22.16
2018-05-13T22:46:28.057Z,22.14
2018-05-13T22:48:54.720Z,22.16
2018-05-13T22:51:21.353Z,22.16
2018-05-13T22:53:48.034Z,22.17
2018-05-13T22:56:14.695Z,22.13
2018-05-13T22:58:41.497Z,22.14
2018-05-13T23:01:11.025Z,22.12
2018-05-13T23:03:37.773Z,22.08
2018-05-13T23:06:04.418Z,22.06
2018-05-13T23:08:31.118Z,22.06
2018-05-13T23:10:57.833Z,22.03
2018-05-13T23:13:24.498Z,22.08
2018-05-13T23:15:51.168Z,21.97
2018-05-13T23:18:17.848Z,22.01
2018-05-13T23:20:44.559Z,22.03
2018-05-13T23:23:11.198Z,22.01
2018-05-13T23:25:37.897Z,21.94
2018-05-13T23:28:04.536Z,21.96
2018-05-13T23:30:31.280Z,22.01
2018-05-13T23:32:57.950Z,21.90
2018-05-13T23:35:24.658Z,21.98
2018-05-13T23:37:51.384Z,21.97
2018-05-13T23:40:18.083Z,21.86
2018-05-13T23:42:44.709Z,21.88
2018-05-13T23:45:11.460Z,21.95
2018-05-13T23:47:38.093Z,21.92
2018-05-13T23:50:04.801Z,21.91
2018-05-13T23:52:31.466Z,21.87
2018-05-13T23:54:58.268Z,21.91
2018-05-13T23:57:24.963Z,21.96
2018-05-13T23:59:51.650Z,21.85
